Soerstokken current weather conditions

sailwx.info

Wind from 210 at 14 knots gusting 25

Air temperature 7.0° C
Visibility: greater than 5.4 NM
Dewpoint 4.0° C
Present weather: Light rain showers. Small hail/snow pellets.

Last reported at 2019-Dec-11 18:20 UTC.
Time now 2019-Dec-11 21:09 UTC

Location: N 59°48' E 005°20'.
View on Google Maps.

See reports from other nearby stations

  
Tides and Currents Weather Stations Pressure Air Temp Water Temp Dewpoint Dewpoint Depression Visibility Wind Speed Wind Dir Waves Ship Positions
date/time (UTC)wind fromknots sea level pressurealtimeterstation pressurevisibilityair tempwater tempwave heightnotes
2019-Dec-11 18:20 210 14 gusting 25 5.4 7.0 Light rain showers. Small hail/snow pellets.
2019-Dec-11 17:50 200 13 gusting 27 5.4 6.0 Showers in the vicinity.
2019-Dec-11 16:50 200 15 gusting 31 5.4 6.0 Rain showers. Hail.
2019-Dec-11 16:20 210 17 gusting 33 5.4 6.0 Rain showers. Small hail/snow pellets.
2019-Dec-11 15:50 220 17 gusting 29 5.4 5.0 Rain showers. Small hail/snow pellets.
2019-Dec-11 15:20 180 13 gusting 26 5.4 7.0 Light rain showers.
2019-Dec-11 14:50 210 18 gusting 32 5.4 6.0 Showers in the vicinity.
2019-Dec-11 14:20 200 14 gusting 27 5.4 7.0 Showers in the vicinity.
2019-Dec-11 13:50 200 17 gusting 29 5.4 7.0 Showers in the vicinity.
2019-Dec-11 13:20 200 15 gusting 28 5.4 7.0 Showers in the vicinity.
2019-Dec-11 12:50 210 12 gusting 24 5.4 7.0
2019-Dec-11 12:20 210 13 gusting 27 5.4 7.0
2019-Dec-11 11:20 210 11 gusting 21 5.4 7.0
2019-Dec-11 10:50 200 12 5.4 7.0
2019-Dec-11 10:20 210 13 5.4 7.0
2019-Dec-11 08:50 220 9 gusting 20 5.4 6.0
2019-Dec-11 07:50 230 11 5.4 6.0
2019-Dec-11 07:20 230 9 5.4 6.0
2019-Dec-11 06:50 230 13 gusting 27 5.4 6.0
2019-Dec-11 06:20 220 11 gusting 21 5.4 5.0 Light rain showers.
2019-Dec-11 05:50 230 13 gusting 29 5.4 6.0 Rain showers.
2019-Dec-11 05:20 220 12 gusting 21 5.4 7.0
2019-Dec-11 04:50 230 11 5.4 7.0
2019-Dec-10 18:20 160 26 gusting 44 4.3 6.0 Rain.
2019-Dec-10 17:50 160 27 gusting 44 4.9 5.0 Rain.
2019-Dec-10 17:20 170 28 gusting 48 4.3 5.0 Rain.
2019-Dec-10 16:50 160 21 gusting 39 4.9 5.0 Rain.
2019-Dec-10 16:20 160 24 gusting 39 5.4 5.0 Rain.
2019-Dec-10 15:50 160 26 gusting 41 5.4 5.0 Rain.
2019-Dec-10 15:20 150 25 gusting 40 5.4 5.0 Rain.
2019-Dec-10 14:50 160 27 gusting 45 5.4 5.0 Light rain.
2019-Dec-10 14:20 160 26 gusting 45 4.9 5.0 Light rain.
2019-Dec-10 13:50 150 27 gusting 40 4.9 5.0 Light rain.
2019-Dec-10 13:20 160 26 gusting 46 5.4 5.0 Light rain.
2019-Dec-10 12:50 160 29 gusting 47 5.4 5.0 Light drizzle snow.
2019-Dec-10 12:20 160 22 gusting 38 5.4 6.0
2019-Dec-10 11:50 160 25 gusting 41 5.4 6.0
2019-Dec-10 11:20 160 20 gusting 35 5.4 5.0
2019-Dec-10 10:50 160 24 gusting 34 5.4 5.0
2019-Dec-10 09:50 150 20 gusting 31 5.4 5.0
2019-Dec-10 09:20 150 20 gusting 32 5.4 4.0
2019-Dec-10 08:50 150 19 gusting 29 5.4 4.0
2019-Dec-10 07:50 130 17 5.4 3.0
2019-Dec-10 07:20 130 15 5.4 3.0
2019-Dec-10 06:50 150 9 5.4 3.0
2019-Dec-10 06:20 140 8 5.4 3.0
2019-Dec-10 05:50 140 7 5.4 2.0
2019-Dec-09 22:50 010 6 5.4 2.0
2019-Dec-09 22:20 010 7 5.4 2.0
2019-Dec-09 21:50 010 6 5.4 3.0
2019-Dec-09 21:20 360 5 5.4 2.0